sensor_id;sensor_type;location;lat;lon;timestamp;pressure;altitude;pressure_sealevel;temperature;humidity
68230;BME280;55048;52.220;5.160;2023-02-02T00:01:49;101990.78;;;8.82;86.41
68230;BME280;55048;52.220;5.160;2023-02-02T00:04:23;101967.28;;;8.73;86.10
68230;BME280;55048;52.220;5.160;2023-02-02T00:06:49;101944.16;;;8.60;86.15
68230;BME280;55048;52.220;5.160;2023-02-02T00:09:16;102013.50;;;8.98;86.10
68230;BME280;55048;52.220;5.160;2023-02-02T00:11:42;101984.72;;;8.54;86.67
68230;BME280;55048;52.220;5.160;2023-02-02T00:14:09;101979.31;;;8.75;86.02
68230;BME280;55048;52.220;5.160;2023-02-02T00:16:45;102017.63;;;9.01;86.33
68230;BME280;55048;52.220;5.160;2023-02-02T00:19:22;102014.16;;;9.00;86.14
68230;BME280;55048;52.220;5.160;2023-02-02T00:21:51;101986.31;;;8.83;85.79
68230;BME280;55048;52.220;5.160;2023-02-02T00:24:17;102007.22;;;9.06;86.13
68230;BME280;55048;52.220;5.160;2023-02-02T00:26:45;102007.22;;;9.06;86.47
68230;BME280;55048;52.220;5.160;2023-02-02T00:29:15;102011.13;;;9.10;85.68
68230;BME280;55048;52.220;5.160;2023-02-02T00:31:41;102010.91;;;9.11;85.76
68230;BME280;55048;52.220;5.160;2023-02-02T00:34:06;101977.94;;;8.86;85.85
68230;BME280;55048;52.220;5.160;2023-02-02T00:36:31;101891.34;;;8.30;86.57
68230;BME280;55048;52.220;5.160;2023-02-02T00:38:57;101802.75;;;7.70;86.56
68230;BME280;55048;52.220;5.160;2023-02-02T00:41:22;101985.50;;;8.82;86.48
68230;BME280;55048;52.220;5.160;2023-02-02T00:43:48;102023.31;;;9.04;86.91
68230;BME280;55048;52.220;5.160;2023-02-02T00:46:33;102018.88;;;9.05;86.54
68230;BME280;55048;52.220;5.160;2023-02-02T00:48:59;101900.84;;;8.18;87.89
68230;BME280;55048;52.220;5.160;2023-02-02T00:51:24;101962.06;;;8.58;86.52
68230;BME280;55048;52.220;5.160;2023-02-02T00:53:50;102024.41;;;8.75;87.34
68230;BME280;55048;52.220;5.160;2023-02-02T00:56:16;101949.91;;;8.35;87.16
68230;BME280;55048;52.220;5.160;2023-02-02T00:58:42;101990.16;;;8.46;87.28
68230;BME280;55048;52.220;5.160;2023-02-02T01:01:17;102018.88;;;8.42;86.72
68230;BME280;55048;52.220;5.160;2023-02-02T01:03:45;102022.41;;;8.49;86.69
68230;BME280;55048;52.220;5.160;2023-02-02T01:06:10;101824.81;;;7.28;85.83
68230;BME280;55048;52.220;5.160;2023-02-02T01:08:36;102010.34;;;8.47;86.00
68230;BME280;55048;52.220;5.160;2023-02-02T01:11:01;101982.63;;;8.21;85.65
68230;BME280;55048;52.220;5.160;2023-02-02T01:13:26;101944.63;;;7.86;86.32
68230;BME280;55048;52.220;5.160;2023-02-02T01:15:57;102034.22;;;8.47;85.88
68230;BME280;55048;52.220;5.160;2023-02-02T01:18:25;102019.69;;;8.42;85.44
68230;BME280;55048;52.220;5.160;2023-02-02T01:23:22;101981.53;;;8.15;85.50
68230;BME280;55048;52.220;5.160;2023-02-02T01:25:56;101996.28;;;8.25;85.86
68230;BME280;55048;52.220;5.160;2023-02-02T01:28:23;102031.78;;;8.52;85.91
68230;BME280;55048;52.220;5.160;2023-02-02T01:30:48;102023.47;;;8.55;85.39
68230;BME280;55048;52.220;5.160;2023-02-02T01:33:15;102020.22;;;8.59;85.17
68230;BME280;55048;52.220;5.160;2023-02-02T01:35:48;101998.94;;;8.46;85.08
68230;BME280;55048;52.220;5.160;2023-02-02T01:38:15;101994.59;;;8.38;85.21
68230;BME280;55048;52.220;5.160;2023-02-02T01:40:49;102017.16;;;8.56;85.21
68230;BME280;55048;52.220;5.160;2023-02-02T01:43:48;101980.00;;;8.28;86.08
68230;BME280;55048;52.220;5.160;2023-02-02T01:46:17;101984.53;;;8.34;85.99
68230;BME280;55048;52.220;5.160;2023-02-02T01:48:47;102024.91;;;8.57;86.71
68230;BME280;55048;52.220;5.160;2023-02-02T01:51:17;101970.19;;;8.22;86.38
68230;BME280;55048;52.220;5.160;2023-02-02T01:53:45;102029.72;;;8.47;87.33
68230;BME280;55048;52.220;5.160;2023-02-02T01:56:18;102014.81;;;8.39;87.36
68230;BME280;55048;52.220;5.160;2023-02-02T01:58:45;102017.50;;;8.46;87.12
68230;BME280;55048;52.220;5.160;2023-02-02T02:01:11;101973.22;;;8.18;87.64
68230;BME280;55048;52.220;5.160;2023-02-02T02:03:38;101989.72;;;8.21;87.25
68230;BME280;55048;52.220;5.160;2023-02-02T02:06:12;101951.66;;;8.00;88.10
68230;BME280;55048;52.220;5.160;2023-02-02T02:08:59;102019.19;;;8.54;88.46
68230;BME280;55048;52.220;5.160;2023-02-02T02:11:27;101828.97;;;7.37;88.23
68230;BME280;55048;52.220;5.160;2023-02-02T02:13:55;102027.75;;;8.56;88.58
68230;BME280;55048;52.220;5.160;2023-02-02T02:22:02;102019.00;;;8.62;88.74
68230;BME280;55048;52.220;5.160;2023-02-02T02:25:14;102011.81;;;8.49;90.08
68230;BME280;55048;52.220;5.160;2023-02-02T02:28:23;102017.94;;;8.50;89.87
68230;BME280;55048;52.220;5.160;2023-02-02T02:31:13;102012.63;;;8.50;89.97
68230;BME280;55048;52.220;5.160;2023-02-02T02:36:47;102015.06;;;8.51;90.41
68230;BME280;55048;52.220;5.160;2023-02-02T02:41:54;102000.03;;;8.58;90.01
68230;BME280;55048;52.220;5.160;2023-02-02T02:44:23;101991.25;;;8.58;90.17
68230;BME280;55048;52.220;5.160;2023-02-02T02:46:49;101993.47;;;8.54;90.10
68230;BME280;55048;52.220;5.160;2023-02-02T02:49:16;101914.34;;;7.95;89.88
68230;BME280;55048;52.220;5.160;2023-02-02T02:52:00;101961.25;;;8.29;89.59
68230;BME280;55048;52.220;5.160;2023-02-02T02:54:40;102000.22;;;8.57;89.34
68230;BME280;55048;52.220;5.160;2023-02-02T03:03:04;101999.84;;;8.60;88.48
68230;BME280;55048;52.220;5.160;2023-02-02T03:08:31;102014.25;;;8.51;88.63
68230;BME280;55048;52.220;5.160;2023-02-02T03:10:58;101989.59;;;8.29;88.51
68230;BME280;55048;52.220;5.160;2023-02-02T03:13:26;102019.22;;;8.60;88.23
68230;BME280;55048;52.220;5.160;2023-02-02T03:15:53;102000.31;;;8.42;88.24
68230;BME280;55048;52.220;5.160;2023-02-02T03:18:20;101980.88;;;8.35;88.32
68230;BME280;55048;52.220;5.160;2023-02-02T03:20:47;101969.84;;;8.31;87.69
68230;BME280;55048;52.220;5.160;2023-02-02T03:23:12;102027.19;;;8.67;87.91
68230;BME280;55048;52.220;5.160;2023-02-02T03:25:38;102009.41;;;8.54;88.03
68230;BME280;55048;52.220;5.160;2023-02-02T03:28:04;101965.28;;;8.25;87.68
68230;BME280;55048;52.220;5.160;2023-02-02T03:30:30;101986.56;;;8.32;87.77
68230;BME280;55048;52.220;5.160;2023-02-02T03:32:56;102013.69;;;8.55;87.68
68230;BME280;55048;52.220;5.160;2023-02-02T03:35:22;102037.06;;;8.73;87.50
68230;BME280;55048;52.220;5.160;2023-02-02T03:37:50;102016.34;;;8.62;87.67
68230;BME280;55048;52.220;5.160;2023-02-02T03:40:15;102015.19;;;8.71;86.98
68230;BME280;55048;52.220;5.160;2023-02-02T03:42:41;101992.25;;;8.57;87.07
68230;BME280;55048;52.220;5.160;2023-02-02T03:45:07;101961.78;;;8.39;86.86
68230;BME280;55048;52.220;5.160;2023-02-02T03:47:32;101989.34;;;8.45;86.42
68230;BME280;55048;52.220;5.160;2023-02-02T03:49:57;102008.03;;;8.65;86.94
68230;BME280;55048;52.220;5.160;2023-02-02T03:52:23;102012.38;;;8.73;86.77
68230;BME280;55048;52.220;5.160;2023-02-02T03:54:49;102005.81;;;8.68;86.42
68230;BME280;55048;52.220;5.160;2023-02-02T03:57:15;101996.84;;;8.69;86.15
68230;BME280;55048;52.220;5.160;2023-02-02T03:59:40;102010.69;;;8.65;86.40
68230;BME280;55048;52.220;5.160;2023-02-02T04:02:05;101903.28;;;8.13;86.29
68230;BME280;55048;52.220;5.160;2023-02-02T04:04:31;102008.94;;;8.79;86.17
68230;BME280;55048;52.220;5.160;2023-02-02T04:06:56;101994.56;;;8.66;86.12
68230;BME280;55048;52.220;5.160;2023-02-02T04:09:23;102049.56;;;8.86;86.24
68230;BME280;55048;52.220;5.160;2023-02-02T04:11:48;101982.06;;;8.54;85.93
68230;BME280;55048;52.220;5.160;2023-02-02T04:14:14;101952.00;;;8.40;86.31
68230;BME280;55048;52.220;5.160;2023-02-02T04:16:39;102014.84;;;8.81;86.08
68230;BME280;55048;52.220;5.160;2023-02-02T04:19:05;102013.50;;;8.91;85.38
68230;BME280;55048;52.220;5.160;2023-02-02T04:21:30;101979.28;;;8.68;85.43
68230;BME280;55048;52.220;5.160;2023-02-02T04:23:56;101940.84;;;8.58;85.02
68230;BME280;55048;52.220;5.160;2023-02-02T04:26:22;102002.22;;;8.83;84.86
68230;BME280;55048;52.220;5.160;2023-02-02T04:28:51;101988.91;;;8.76;85.36
68230;BME280;55048;52.220;5.160;2023-02-02T04:31:16;101960.63;;;8.49;85.58
68230;BME280;55048;52.220;5.160;2023-02-02T04:33:41;101996.25;;;8.74;84.68
68230;BME280;55048;52.220;5.160;2023-02-02T04:36:07;101992.19;;;8.78;85.07
68230;BME280;55048;52.220;5.160;2023-02-02T04:38:32;101965.75;;;8.57;85.33
68230;BME280;55048;52.220;5.160;2023-02-02T04:40:58;101905.44;;;8.03;85.08
68230;BME280;55048;52.220;5.160;2023-02-02T04:43:23;101907.44;;;8.29;84.94
68230;BME280;55048;52.220;5.160;2023-02-02T04:45:55;102000.66;;;8.60;84.62
68230;BME280;55048;52.220;5.160;2023-02-02T04:48:21;102009.13;;;8.77;85.11
68230;BME280;55048;52.220;5.160;2023-02-02T04:50:47;102004.19;;;8.67;85.23
68230;BME280;55048;52.220;5.160;2023-02-02T04:53:12;101996.84;;;8.69;85.13
68230;BME280;55048;52.220;5.160;2023-02-02T04:55:37;102020.00;;;8.89;85.08
68230;BME280;55048;52.220;5.160;2023-02-02T04:58:04;101987.84;;;8.71;85.03
68230;BME280;55048;52.220;5.160;2023-02-02T05:00:29;102023.66;;;8.88;84.79
68230;BME280;55048;52.220;5.160;2023-02-02T05:02:55;101990.91;;;8.67;84.79
68230;BME280;55048;52.220;5.160;2023-02-02T05:05:20;102006.03;;;8.74;84.57
68230;BME280;55048;52.220;5.160;2023-02-02T05:07:46;102033.31;;;8.96;84.68
68230;BME280;55048;52.220;5.160;2023-02-02T05:10:11;102011.50;;;8.65;85.33
68230;BME280;55048;52.220;5.160;2023-02-02T05:12:37;102043.34;;;9.07;85.15
68230;BME280;55048;52.220;5.160;2023-02-02T05:15:03;101911.31;;;8.26;84.87
68230;BME280;55048;52.220;5.160;2023-02-02T05:17:30;101967.78;;;8.55;85.16
68230;BME280;55048;52.220;5.160;2023-02-02T05:19:55;102022.41;;;8.84;85.16
68230;BME280;55048;52.220;5.160;2023-02-02T05:22:21;102009.59;;;8.87;85.27
68230;BME280;55048;52.220;5.160;2023-02-02T05:24:46;101976.19;;;8.65;85.10
68230;BME280;55048;52.220;5.160;2023-02-02T05:27:12;102022.03;;;8.87;85.50
68230;BME280;55048;52.220;5.160;2023-02-02T05:29:37;102001.34;;;8.76;85.19
68230;BME280;55048;52.220;5.160;2023-02-02T05:32:03;101897.31;;;8.11;85.57
68230;BME280;55048;52.220;5.160;2023-02-02T05:34:28;102026.09;;;8.83;85.94
68230;BME280;55048;52.220;5.160;2023-02-02T05:36:54;102017.84;;;8.71;85.22
68230;BME280;55048;52.220;5.160;2023-02-02T05:39:20;102042.09;;;8.96;85.79
68230;BME280;55048;52.220;5.160;2023-02-02T05:41:45;102001.56;;;8.74;85.36
68230;BME280;55048;52.220;5.160;2023-02-02T05:44:14;102044.75;;;9.03;86.07
68230;BME280;55048;52.220;5.160;2023-02-02T05:46:39;102049.88;;;9.04;85.89
68230;BME280;55048;52.220;5.160;2023-02-02T05:49:12;101872.56;;;7.97;85.86
68230;BME280;55048;52.220;5.160;2023-02-02T05:51:45;102059.84;;;8.96;86.49
68230;BME280;55048;52.220;5.160;2023-02-02T05:54:11;102064.56;;;9.00;86.45
68230;BME280;55048;52.220;5.160;2023-02-02T05:56:41;101931.44;;;8.21;86.83
68230;BME280;55048;52.220;5.160;2023-02-02T05:59:06;102005.59;;;8.70;86.68
68230;BME280;55048;52.220;5.160;2023-02-02T06:01:32;102006.16;;;8.59;87.27
68230;BME280;55048;52.220;5.160;2023-02-02T06:03:58;102014.59;;;8.69;87.45
68230;BME280;55048;52.220;5.160;2023-02-02T06:06:24;102002.94;;;8.63;87.05
68230;BME280;55048;52.220;5.160;2023-02-02T06:08:49;102063.09;;;8.98;86.96
68230;BME280;55048;52.220;5.160;2023-02-02T06:11:16;102066.34;;;8.93;86.97
68230;BME280;55048;52.220;5.160;2023-02-02T06:13:42;102057.94;;;8.83;87.46
68230;BME280;55048;52.220;5.160;2023-02-02T06:16:08;101827.19;;;7.44;87.25
68230;BME280;55048;52.220;5.160;2023-02-02T06:18:34;101989.81;;;8.55;87.16
68230;BME280;55048;52.220;5.160;2023-02-02T06:21:02;102016.53;;;8.54;87.92
68230;BME280;55048;52.220;5.160;2023-02-02T06:23:27;102071.06;;;8.98;87.72
68230;BME280;55048;52.220;5.160;2023-02-02T06:25:53;101997.06;;;8.40;87.90
68230;BME280;55048;52.220;5.160;2023-02-02T06:28:19;102068.25;;;8.71;89.01
68230;BME280;55048;52.220;5.160;2023-02-02T06:30:44;102086.09;;;8.84;88.69
68230;BME280;55048;52.220;5.160;2023-02-02T06:33:09;102027.50;;;8.51;88.98
68230;BME280;55048;52.220;5.160;2023-02-02T06:35:35;102033.06;;;8.56;88.60
68230;BME280;55048;52.220;5.160;2023-02-02T06:38:00;102042.50;;;8.65;88.93
68230;BME280;55048;52.220;5.160;2023-02-02T06:40:27;102068.91;;;8.80;88.86
68230;BME280;55048;52.220;5.160;2023-02-02T06:42:56;102105.09;;;8.87;89.69
68230;BME280;55048;52.220;5.160;2023-02-02T06:45:22;102037.38;;;8.35;89.96
68230;BME280;55048;52.220;5.160;2023-02-02T06:47:48;102063.28;;;8.61;89.17
68230;BME280;55048;52.220;5.160;2023-02-02T06:50:13;101997.16;;;8.04;89.96
68230;BME280;55048;52.220;5.160;2023-02-02T06:52:39;102094.97;;;8.69;90.62
68230;BME280;55048;52.220;5.160;2023-02-02T06:55:05;102119.19;;;8.88;89.80
68230;BME280;55048;52.220;5.160;2023-02-02T06:57:30;102039.28;;;8.41;89.89
68230;BME280;55048;52.220;5.160;2023-02-02T06:59:55;102023.81;;;8.24;89.40
68230;BME280;55048;52.220;5.160;2023-02-02T07:02:21;102081.34;;;8.51;nan
68230;BME280;55048;52.220;5.160;2023-02-02T07:04:48;102110.78;;;8.84;90.01
68230;BME280;55048;52.220;5.160;2023-02-02T07:07:13;102080.69;;;8.71;90.44
68230;BME280;55048;52.220;5.160;2023-02-02T07:09:38;102026.59;;;8.37;90.23
68230;BME280;55048;52.220;5.160;2023-02-02T07:12:04;102100.81;;;8.86;90.15
68230;BME280;55048;52.220;5.160;2023-02-02T07:14:29;101963.72;;;8.03;89.91
68230;BME280;55048;52.220;5.160;2023-02-02T07:16:55;102011.84;;;8.34;90.13
68230;BME280;55048;52.220;5.160;2023-02-02T07:19:20;102010.31;;;8.18;90.07
68230;BME280;55048;52.220;5.160;2023-02-02T07:21:46;102098.50;;;8.77;90.05
68230;BME280;55048;52.220;5.160;2023-02-02T07:24:11;102071.47;;;8.66;89.91
68230;BME280;55048;52.220;5.160;2023-02-02T07:26:36;102101.91;;;8.71;89.39
68230;BME280;55048;52.220;5.160;2023-02-02T07:29:02;102087.09;;;8.55;89.42
68230;BME280;55048;52.220;5.160;2023-02-02T07:31:28;102130.13;;;8.78;89.36
68230;BME280;55048;52.220;5.160;2023-02-02T07:33:54;102035.66;;;8.28;89.24
68230;BME280;55048;52.220;5.160;2023-02-02T07:36:21;102092.66;;;8.60;88.97
68230;BME280;55048;52.220;5.160;2023-02-02T07:38:49;102109.69;;;8.72;88.72
68230;BME280;55048;52.220;5.160;2023-02-02T07:41:16;102138.31;;;8.83;88.65
68230;BME280;55048;52.220;5.160;2023-02-02T07:43:41;102030.91;;;8.16;89.12
68230;BME280;55048;52.220;5.160;2023-02-02T07:46:08;102000.63;;;8.04;88.78
68230;BME280;55048;52.220;5.160;2023-02-02T07:48:35;102141.66;;;8.92;87.97
68230;BME280;55048;52.220;5.160;2023-02-02T07:51:05;102110.41;;;8.59;88.19
68230;BME280;55048;52.220;5.160;2023-02-02T07:53:30;102070.38;;;8.33;88.09
68230;BME280;55048;52.220;5.160;2023-02-02T07:56:08;102152.63;;;8.89;87.77
68230;BME280;55048;52.220;5.160;2023-02-02T07:58:34;102052.91;;;8.17;87.51
68230;BME280;55048;52.220;5.160;2023-02-02T08:01:01;102154.72;;;8.93;87.00
68230;BME280;55048;52.220;5.160;2023-02-02T08:03:27;102160.59;;;8.89;87.35
68230;BME280;55048;52.220;5.160;2023-02-02T08:05:53;102000.13;;;7.94;87.34
68230;BME280;55048;52.220;5.160;2023-02-02T08:08:18;102056.75;;;8.36;86.90
68230;BME280;55048;52.220;5.160;2023-02-02T08:10:48;102075.03;;;8.52;86.26
68230;BME280;55048;52.220;5.160;2023-02-02T08:13:13;102126.81;;;8.76;86.23
68230;BME280;55048;52.220;5.160;2023-02-02T08:15:38;102119.78;;;8.62;86.18
68230;BME280;55048;52.220;5.160;2023-02-02T08:18:04;102128.75;;;8.61;86.37
68230;BME280;55048;52.220;5.160;2023-02-02T08:20:29;102158.72;;;8.83;86.28
68230;BME280;55048;52.220;5.160;2023-02-02T08:22:55;102115.81;;;8.51;86.36
68230;BME280;55048;52.220;5.160;2023-02-02T08:25:20;102139.91;;;8.78;85.80
68230;BME280;55048;52.220;5.160;2023-02-02T08:27:46;102027.16;;;8.11;85.53
68230;BME280;55048;52.220;5.160;2023-02-02T08:30:11;102184.22;;;9.05;85.52
68230;BME280;55048;52.220;5.160;2023-02-02T08:32:37;102121.50;;;8.48;86.38
68230;BME280;55048;52.220;5.160;2023-02-02T08:35:04;102185.75;;;8.93;86.15
68230;BME280;55048;52.220;5.160;2023-02-02T08:37:29;102156.88;;;8.83;85.76
68230;BME280;55048;52.220;5.160;2023-02-02T08:39:56;102208.94;;;9.12;85.83
68230;BME280;55048;52.220;5.160;2023-02-02T08:42:21;102185.19;;;9.04;85.01
68230;BME280;55048;52.220;5.160;2023-02-02T08:44:46;102176.75;;;8.94;85.61
68230;BME280;55048;52.220;5.160;2023-02-02T08:47:12;102207.59;;;9.23;85.23
68230;BME280;55048;52.220;5.160;2023-02-02T08:49:37;102176.19;;;8.99;84.91
68230;BME280;55048;52.220;5.160;2023-02-02T08:52:03;102203.50;;;9.20;85.34
68230;BME280;55048;52.220;5.160;2023-02-02T08:54:28;102206.84;;;9.29;84.91
68230;BME280;55048;52.220;5.160;2023-02-02T08:56:55;102153.22;;;8.84;84.76
68230;BME280;55048;52.220;5.160;2023-02-02T08:59:20;102208.03;;;9.27;84.58
68230;BME280;55048;52.220;5.160;2023-02-02T09:01:46;102168.22;;;8.99;85.08
68230;BME280;55048;52.220;5.160;2023-02-02T09:04:14;102223.38;;;9.31;84.49
68230;BME280;55048;52.220;5.160;2023-02-02T09:06:40;102137.31;;;8.84;84.68
68230;BME280;55048;52.220;5.160;2023-02-02T09:09:08;102188.53;;;9.13;84.72
68230;BME280;55048;52.220;5.160;2023-02-02T09:11:34;102208.69;;;9.35;84.39
68230;BME280;55048;52.220;5.160;2023-02-02T09:14:00;102167.31;;;9.13;84.25
68230;BME280;55048;52.220;5.160;2023-02-02T09:16:28;102183.09;;;9.21;84.13
68230;BME280;55048;52.220;5.160;2023-02-02T09:18:55;102200.88;;;9.27;84.46
68230;BME280;55048;52.220;5.160;2023-02-02T09:21:21;102238.88;;;9.28;84.62
68230;BME280;55048;52.220;5.160;2023-02-02T09:23:48;102241.09;;;9.52;84.46
68230;BME280;55048;52.220;5.160;2023-02-02T09:26:17;102249.47;;;9.56;84.50
68230;BME280;55048;52.220;5.160;2023-02-02T09:28:52;102199.63;;;9.23;83.77
68230;BME280;55048;52.220;5.160;2023-02-02T09:31:17;102250.69;;;9.53;84.18
68230;BME280;55048;52.220;5.160;2023-02-02T09:33:43;102228.91;;;9.36;84.64
68230;BME280;55048;52.220;5.160;2023-02-02T09:36:14;102258.09;;;9.64;84.30
68230;BME280;55048;52.220;5.160;2023-02-02T09:38:40;102244.16;;;9.56;84.47
68230;BME280;55048;52.220;5.160;2023-02-02T09:44:15;102253.34;;;9.53;84.74
68230;BME280;55048;52.220;5.160;2023-02-02T09:52:29;102235.25;;;9.35;84.63
68230;BME280;55048;52.220;5.160;2023-02-02T09:55:09;102264.91;;;9.39;85.09
68230;BME280;55048;52.220;5.160;2023-02-02T09:57:47;102257.78;;;9.46;84.84
68230;BME280;55048;52.220;5.160;2023-02-02T10:00:25;102262.28;;;9.45;85.28
68230;BME280;55048;52.220;5.160;2023-02-02T10:02:57;102272.56;;;9.55;84.77
68230;BME280;55048;52.220;5.160;2023-02-02T10:05:28;102267.47;;;9.60;84.79
68230;BME280;55048;52.220;5.160;2023-02-02T10:07:58;102206.72;;;9.16;84.97
68230;BME280;55048;52.220;5.160;2023-02-02T10:10:38;102222.56;;;9.31;84.57
68230;BME280;55048;52.220;5.160;2023-02-02T10:13:17;102277.94;;;9.62;85.02
68230;BME280;55048;52.220;5.160;2023-02-02T10:23:48;102274.03;;;9.64;84.56
68230;BME280;55048;52.220;5.160;2023-02-02T10:27:00;102288.00;;;9.73;84.57
68230;BME280;55048;52.220;5.160;2023-02-02T10:34:53;102275.03;;;9.57;84.60
68230;BME280;55048;52.220;5.160;2023-02-02T10:46:04;102285.50;;;9.65;83.59
68230;BME280;55048;52.220;5.160;2023-02-02T10:48:34;102285.94;;;9.68;83.69
68230;BME280;55048;52.220;5.160;2023-02-02T10:51:05;102313.84;;;9.86;83.76
68230;BME280;55048;52.220;5.160;2023-02-02T10:53:36;102253.47;;;9.38;83.55
68230;BME280;55048;52.220;5.160;2023-02-02T10:56:05;102304.22;;;9.85;83.36
68230;BME280;55048;52.220;5.160;2023-02-02T11:01:38;102210.53;;;9.35;83.10
68230;BME280;55048;52.220;5.160;2023-02-02T11:04:04;102299.97;;;9.90;82.74
68230;BME280;55048;52.220;5.160;2023-02-02T11:06:48;102244.00;;;9.64;82.67
68230;BME280;55048;52.220;5.160;2023-02-02T11:09:17;102296.94;;;10.00;82.88
68230;BME280;55048;52.220;5.160;2023-02-02T11:11:45;102303.72;;;10.03;82.47
68230;BME280;55048;52.220;5.160;2023-02-02T11:14:17;102303.09;;;10.01;82.64
68230;BME280;55048;52.220;5.160;2023-02-02T11:17:00;102276.06;;;9.90;82.97
68230;BME280;55048;52.220;5.160;2023-02-02T11:19:28;102283.44;;;10.02;82.07
68230;BME280;55048;52.220;5.160;2023-02-02T11:22:00;102304.78;;;10.08;82.20
68230;BME280;55048;52.220;5.160;2023-02-02T11:24:28;102301.91;;;10.10;81.93
68230;BME280;55048;52.220;5.160;2023-02-02T11:27:06;102247.91;;;9.68;81.83
68230;BME280;55048;52.220;5.160;2023-02-02T11:29:42;102264.78;;;9.88;81.74
68230;BME280;55048;52.220;5.160;2023-02-02T11:32:38;102299.63;;;10.07;81.80
68230;BME280;55048;52.220;5.160;2023-02-02T11:37:34;102205.69;;;9.45;80.95
68230;BME280;55048;52.220;5.160;2023-02-02T11:40:25;102301.66;;;9.98;81.08
68230;BME280;55048;52.220;5.160;2023-02-02T11:42:54;102277.84;;;9.83;80.98
68230;BME280;55048;52.220;5.160;2023-02-02T11:45:36;102267.19;;;9.77;80.99
68230;BME280;55048;52.220;5.160;2023-02-02T11:48:07;102233.50;;;9.49;81.18
68230;BME280;55048;52.220;5.160;2023-02-02T11:50:44;102304.94;;;10.00;81.06
68230;BME280;55048;52.220;5.160;2023-02-02T11:53:21;102253.69;;;9.78;81.19
68230;BME280;55048;52.220;5.160;2023-02-02T11:55:48;102253.47;;;9.73;80.94
68230;BME280;55048;52.220;5.160;2023-02-02T11:58:25;102281.13;;;9.85;81.07
68230;BME280;55048;52.220;5.160;2023-02-02T12:00:57;102299.41;;;10.02;80.89
68230;BME280;55048;52.220;5.160;2023-02-02T12:05:50;102262.22;;;9.67;81.17
68230;BME280;55048;52.220;5.160;2023-02-02T12:08:15;102303.28;;;9.99;81.33
68230;BME280;55048;52.220;5.160;2023-02-02T12:10:46;102307.97;;;9.97;81.33
68230;BME280;55048;52.220;5.160;2023-02-02T12:16:16;102298.56;;;9.94;81.76
68230;BME280;55048;52.220;5.160;2023-02-02T12:24:28;102187.44;;;9.29;81.69
68230;BME280;55048;52.220;5.160;2023-02-02T12:27:21;102253.44;;;9.66;81.78
68230;BME280;55048;52.220;5.160;2023-02-02T12:32:52;102292.00;;;9.90;81.78
68230;BME280;55048;52.220;5.160;2023-02-02T12:35:40;102289.34;;;9.90;81.86
68230;BME280;55048;52.220;5.160;2023-02-02T12:41:07;102287.47;;;9.84;82.23
68230;BME280;55048;52.220;5.160;2023-02-02T12:43:41;102256.69;;;9.62;82.30
68230;BME280;55048;52.220;5.160;2023-02-02T13:00:28;102275.84;;;9.92;82.03
68230;BME280;55048;52.220;5.160;2023-02-02T13:03:05;102249.59;;;9.76;82.42
68230;BME280;55048;52.220;5.160;2023-02-02T13:06:12;102231.72;;;9.56;83.53
68230;BME280;55048;52.220;5.160;2023-02-02T13:08:48;102254.69;;;9.70;83.97
68230;BME280;55048;52.220;5.160;2023-02-02T13:11:36;102263.84;;;9.68;85.32
68230;BME280;55048;52.220;5.160;2023-02-02T13:16:46;102278.53;;;9.64;87.30
68230;BME280;55048;52.220;5.160;2023-02-02T13:19:23;102284.06;;;9.62;87.27
68230;BME280;55048;52.220;5.160;2023-02-02T13:21:51;102239.13;;;9.33;87.03
68230;BME280;55048;52.220;5.160;2023-02-02T13:24:25;102285.31;;;9.66;87.66
68230;BME280;55048;52.220;5.160;2023-02-02T13:26:52;102296.13;;;9.65;87.79
68230;BME280;55048;52.220;5.160;2023-02-02T13:29:31;102297.13;;;9.64;88.00
68230;BME280;55048;52.220;5.160;2023-02-02T13:32:28;102293.22;;;9.60;88.87
68230;BME280;55048;52.220;5.160;2023-02-02T13:34:59;102274.56;;;9.47;89.58
68230;BME280;55048;52.220;5.160;2023-02-02T13:37:50;102289.50;;;9.54;89.75
68230;BME280;55048;52.220;5.160;2023-02-02T13:40:38;102264.09;;;9.38;89.97
68230;BME280;55048;52.220;5.160;2023-02-02T13:51:12;102268.81;;;9.43;90.52
68230;BME280;55048;52.220;5.160;2023-02-02T13:56:38;102291.97;;;9.56;91.38
68230;BME280;55048;52.220;5.160;2023-02-02T14:01:45;102277.53;;;9.37;91.90
68230;BME280;55048;52.220;5.160;2023-02-02T14:04:24;102275.06;;;9.35;92.95
68230;BME280;55048;52.220;5.160;2023-02-02T14:07:01;102260.75;;;9.30;92.47
68230;BME280;55048;52.220;5.160;2023-02-02T14:09:31;102293.56;;;9.50;92.34
68230;BME280;55048;52.220;5.160;2023-02-02T14:12:01;102299.69;;;9.51;92.36
68230;BME280;55048;52.220;5.160;2023-02-02T14:14:27;102295.19;;;9.51;93.22
68230;BME280;55048;52.220;5.160;2023-02-02T14:22:00;102293.72;;;9.42;93.45
68230;BME280;55048;52.220;5.160;2023-02-02T14:26:52;102305.31;;;9.34;94.50
68230;BME280;55048;52.220;5.160;2023-02-02T14:39:44;102303.72;;;9.40;94.11
68230;BME280;55048;52.220;5.160;2023-02-02T14:42:34;102312.69;;;9.39;93.83
68230;BME280;55048;52.220;5.160;2023-02-02T14:45:37;102277.13;;;9.12;93.92
68230;BME280;55048;52.220;5.160;2023-02-02T14:48:19;102320.41;;;9.34;93.98
68230;BME280;55048;52.220;5.160;2023-02-02T14:50:56;102292.03;;;9.13;94.35
68230;BME280;55048;52.220;5.160;2023-02-02T14:55:58;102326.63;;;9.19;95.93
68230;BME280;55048;52.220;5.160;2023-02-02T15:06:49;102304.44;;;9.06;95.75
68230;BME280;55048;52.220;5.160;2023-02-02T15:14:48;102328.38;;;9.34;94.77
68230;BME280;55048;52.220;5.160;2023-02-02T15:24:59;102339.63;;;9.36;94.26
68230;BME280;55048;52.220;5.160;2023-02-02T15:27:27;102269.00;;;8.92;94.54
68230;BME280;55048;52.220;5.160;2023-02-02T15:30:00;102322.25;;;9.33;94.11
68230;BME280;55048;52.220;5.160;2023-02-02T15:32:27;102341.94;;;9.45;94.32
68230;BME280;55048;52.220;5.160;2023-02-02T15:34:58;102296.59;;;9.19;93.95
68230;BME280;55048;52.220;5.160;2023-02-02T15:37:30;102333.00;;;9.47;93.82
68230;BME280;55048;52.220;5.160;2023-02-02T15:40:01;102291.66;;;9.16;93.70
68230;BME280;55048;52.220;5.160;2023-02-02T15:42:38;102344.81;;;9.44;94.84